Portada
METAR-TAF:

METAR-TAF

Aeroports :

Bagdad, Iraq

latitud: 33-15-45N, longitud: 44-14-04E, altitud: 35 m

Observació

L'informe es va fer fa 34 minuts, a les 08:00 UTC
Vent 10 kt del Nord-Oest, variant entre Oest i Nord/Nord-Oest
Temperatura 34°C
Humitat 25%
Pressió 1010 hPa
Visibilitat 10 km o més
sense núvols per sota de 1500 mi sense presència de cumulonimbus.

METAR: ORBI 080800Z 31010KT 270V340 CAVOK 34/11 Q1010 NOSIG

Hora: 11:34 (08:34 UTC)

Pronòstic

L'informe es va fer fa 4 hores i 34 minuts, a les 04:00 UTC
Pronòstic vàlid del 08 a les 06 UTC al 09 a les 06 UTC
Vent 9 kt del Oest/Nord-Oest
Visibilitat: 8000 m

TAF: ORBI 080400Z 0806/0906 29009KT 8000 NSC

Observacions i pronòstics meteorològics de més de 4000 aeroports (METAR i TAF).

Les estacions disponibles són els punts grocs i vermells al mapa.

Posi el ratolí al punt desitjat per veure el nom de l'estació.

Feu clic per veure les observacions i els pronòstics meteorològics.

Per canviar el mapa: feu clic els botons verds amb una creu de color negre per apropar; al botó verd amb un guió per allunyar la imatge; o en les fletxes verdes per a mapes adjacents.


METAR-TAF: